Time;durP1;ratioP1;P1;durP2;ratioP2;P2;SDS_P1;SDS_P2;PMS_P1;PMS_P2;Temp;Humidity;BMP_temperature;BMP_pressure;BME280_temperature;BME280_humidity;BME280_pressure;Samples;Min_cycle;Max_cycle;Signal;HPM_P1;HPM_P2
2023/06/09 00:00:48;;;;;;;0.90;0.75;;;;;;;29.64;30.23;100034.94;7392930;19;20512;-84
2023/06/09 00:03:21;;;;;;;0.77;0.55;;;;;;;29.68;30.38;100034.50;7397672;19;20098;-84
2023/06/09 00:05:48;;;;;;;0.75;0.55;;;;;;;29.85;30.12;100032.22;7394521;19;20398;-83
2023/06/09 00:08:14;;;;;;;1.80;0.80;;;;;;;29.90;29.96;100022.56;7392902;19;20019;-84
2023/06/09 00:10:41;;;;;;;0.60;0.60;;;;;;;29.79;30.27;100028.94;7398080;19;20028;-83
2023/06/09 00:13:09;;;;;;;0.57;0.35;;;;;;;29.81;30.15;100026.19;7394387;19;20418;-84
2023/06/09 00:15:36;;;;;;;0.75;0.73;;;;;;;29.80;29.92;100024.69;7395614;19;20039;-83
2023/06/09 00:18:02;;;;;;;1.35;0.77;;;;;;;29.70;29.79;100028.91;7394280;19;20484;-82
2023/06/09 00:20:33;;;;;;;0.70;0.70;;;;;;;29.54;29.88;100014.09;7393369;19;20034;-83
2023/06/09 00:23:01;;;;;;;0.40;0.40;;;;;;;29.57;30.26;100010.03;7393288;19;20017;-83
2023/06/09 00:25:27;;;;;;;1.25;0.77;;;;;;;29.45;30.06;100017.75;7394034;19;20039;-83
2023/06/09 00:27:53;;;;;;;4.68;1.48;;;;;;;29.66;30.00;100020.75;7392923;19;20018;-82
2023/06/09 00:30:21;;;;;;;0.63;0.40;;;;;;;29.64;29.99;100020.59;7394154;19;20021;-83
2023/06/09 00:32:47;;;;;;;0.82;0.82;;;;;;;29.69;29.94;100007.31;7396019;19;20408;-83
2023/06/09 00:35:14;;;;;;;7.00;1.40;;;;;;;29.65;30.26;100007.75;7395227;19;20493;-83
2023/06/09 00:37:40;;;;;;;1.90;0.70;;;;;;;29.57;30.16;100007.16;7392562;19;20097;-83
2023/06/09 00:40:07;;;;;;;1.42;1.33;;;;;;;29.57;30.24;100006.38;7395774;19;20467;-83
2023/06/09 00:42:33;;;;;;;1.63;0.65;;;;;;;29.75;30.17;99999.91;7391555;19;20534;-83
2023/06/09 00:45:00;;;;;;;0.98;0.95;;;;;;;29.88;29.74;100002.31;7389842;19;20025;-83
2023/06/09 00:47:27;;;;;;;0.55;0.40;;;;;;;29.73;30.00;99996.88;7393444;19;20350;-83
2023/06/09 00:49:53;;;;;;;1.80;0.57;;;;;;;29.64;29.83;99994.75;7397953;19;20010;-82
2023/06/09 00:52:20;;;;;;;0.50;0.50;;;;;;;29.65;30.04;100002.00;7395171;19;20472;-83
2023/06/09 00:54:46;;;;;;;0.98;0.82;;;;;;;29.61;30.01;100001.69;7395617;19;20014;-83
2023/06/09 00:57:13;;;;;;;1.88;1.15;;;;;;;29.74;30.13;99998.41;7394739;19;20034;-82
2023/06/09 00:59:40;;;;;;;2.40;0.63;;;;;;;29.68;29.99;99995.06;7394624;19;20021;-83
2023/06/09 01:02:07;;;;;;;1.10;0.85;;;;;;;28.64;31.46;99996.44;7394405;19;20015;-83
2023/06/09 01:04:35;;;;;;;9.68;1.65;;;;;;;29.62;30.35;99994.63;7393321;19;20078;-81
2023/06/09 01:07:20;;;;;;;1.52;0.47;;;;;;;29.96;29.81;99997.16;7393564;19;20118;-81
2023/06/09 01:09:55;;;;;;;5.50;0.85;;;;;;;29.94;29.76;99994.13;7397389;19;20019;-84
2023/06/09 01:12:45;;;;;;;2.40;0.77;;;;;;;29.89;29.67;99994.44;7399483;19;20092;-82
2023/06/09 01:15:20;;;;;;;2.30;1.13;;;;;;;29.70;29.91;100008.78;7395461;19;20021;-83
2023/06/09 01:17:55;;;;;;;2.45;0.50;;;;;;;29.53;29.77;100008.97;7396616;19;20382;-83
2023/06/09 01:20:35;;;;;;;5.88;1.65;;;;;;;29.61;29.75;100010.31;7404764;19;20026;-83
2023/06/09 01:23:08;;;;;;;0.45;0.45;;;;;;;29.09;30.65;100009.22;7405531;19;20030;-83
2023/06/09 01:25:43;;;;;;;0.98;0.68;;;;;;;29.59;30.23;100015.91;7399755;19;20015;-83
2023/06/09 01:28:15;;;;;;;1.02;0.85;;;;;;;29.69;30.47;100013.78;7390612;19;20018;-83
2023/06/09 01:30:43;;;;;;;1.23;0.82;;;;;;;29.78;30.33;100018.78;7394420;19;20022;-83
2023/06/09 01:33:16;;;;;;;0.63;0.63;;;;;;;29.81;30.03;100014.72;7395742;19;20019;-83
2023/06/09 01:35:43;;;;;;;2.25;0.60;;;;;;;29.63;29.97;100016.22;7393816;19;20389;-83
2023/06/09 01:38:11;;;;;;;2.75;0.98;;;;;;;29.67;30.13;100022.25;7392058;19;20046;-83
2023/06/09 01:40:37;;;;;;;0.17;0.17;;;;;;;29.70;30.13;100021.03;7391297;19;20035;-83
2023/06/09 01:43:05;;;;;;;0.43;0.43;;;;;;;29.63;30.15;100013.34;7387969;19;20074;-83
2023/06/09 01:45:32;;;;;;;1.70;1.15;;;;;;;29.74;29.90;100021.38;7389305;19;20021;-83
2023/06/09 01:48:03;;;;;;;0.57;0.50;;;;;;;29.73;30.33;100011.22;7390753;19;20481;-83
2023/06/09 01:51:14;;;;;;;6.18;0.93;;;;;;;29.94;29.85;100011.38;7390389;19;20037;-82
2023/06/09 01:53:48;;;;;;;1.67;1.15;;;;;;;30.01;30.16;100003.19;7391288;19;20010;-83
2023/06/09 01:56:27;;;;;;;0.93;0.82;;;;;;;30.07;29.84;100012.22;7392837;19;20014;-83
2023/06/09 01:59:00;;;;;;;1.15;1.05;;;;;;;29.77;30.14;99997.19;7392680;19;20023;-83
2023/06/09 02:01:28;;;;;;;0.30;0.30;;;;;;;29.89;29.87;100003.81;7394767;19;20018;-82
2023/06/09 02:03:57;;;;;;;2.80;1.27;;;;;;;29.94;29.74;100005.63;7395770;19;20034;-82
2023/06/09 02:06:23;;;;;;;7.18;1.23;;;;;;;29.91;29.91;100000.31;7393039;19;20037;-83
2023/06/09 02:08:50;;;;;;;1.80;0.98;;;;;;;29.87;29.76;99989.31;7389267;19;20011;-83
2023/06/09 02:11:17;;;;;;;1.95;0.98;;;;;;;29.83;30.08;99994.00;7392033;19;20017;-82
2023/06/09 02:13:55;;;;;;;2.17;0.63;;;;;;;29.88;29.93;99996.56;7393644;19;20038;-83
2023/06/09 02:16:24;;;;;;;1.00;0.68;;;;;;;29.93;30.05;99997.63;7391503;19;20025;-83
2023/06/09 02:18:52;;;;;;;1.13;0.85;;;;;;;30.12;29.80;99985.31;7391432;19;20026;-82
2023/06/09 02:21:18;;;;;;;2.83;0.93;;;;;;;29.83;29.93;99989.00;7396942;19;20032;-83
2023/06/09 02:23:44;;;;;;;0.80;0.80;;;;;;;29.72;30.04;99983.84;7391332;19;20019;-83
2023/06/09 02:26:10;;;;;;;1.45;0.55;;;;;;;29.83;29.82;99977.53;7394878;19;20021;-83
2023/06/09 02:28:36;;;;;;;5.00;1.40;;;;;;;29.66;29.68;99974.06;7389979;19;20015;-83
2023/06/09 02:31:04;;;;;;;2.08;1.20;;;;;;;29.49;30.65;99979.97;7390678;19;20014;-82
2023/06/09 02:33:31;;;;;;;1.35;1.25;;;;;;;29.40;30.61;99970.00;7393610;19;20018;-83
2023/06/09 02:35:58;;;;;;;2.10;0.88;;;;;;;29.37;30.29;99971.19;7389608;19;20046;-83
2023/06/09 02:38:26;;;;;;;0.40;0.40;;;;;;;29.41;30.36;99959.28;7391944;19;20035;-83
2023/06/09 02:40:52;;;;;;;1.42;0.98;;;;;;;29.51;30.82;99955.03;7388758;19;20015;-83
2023/06/09 02:43:18;;;;;;;1.00;1.00;;;;;;;29.67;30.51;99953.34;7388555;19;20298;-83
2023/06/09 02:45:46;;;;;;;0.43;0.35;;;;;;;29.81;30.23;99945.78;7388013;19;20015;-83
2023/06/09 02:48:13;;;;;;;0.68;0.68;;;;;;;29.75;30.48;99948.22;7388291;19;20086;-82
2023/06/09 02:50:39;;;;;;;0.22;0.22;;;;;;;29.79;30.01;99944.88;7388605;19;20014;-82
2023/06/09 02:53:08;;;;;;;0.73;0.70;;;;;;;29.70;30.11;99948.50;7388448;19;20668;-82
2023/06/09 02:55:35;;;;;;;0.98;0.60;;;;;;;29.71;30.38;99944.28;7388921;19;20018;-82
2023/06/09 02:58:02;;;;;;;11.18;0.73;;;;;;;29.84;30.08;99941.69;7388407;19;20034;-82
2023/06/09 03:00:29;;;;;;;1.75;1.17;;;;;;;29.96;30.24;99936.81;7387808;19;20029;-82
2023/06/09 03:02:58;;;;;;;0.57;0.57;;;;;;;29.99;30.01;99938.47;7391026;19;20017;-83
2023/06/09 03:05:27;;;;;;;1.05;1.05;;;;;;;30.04;29.69;99933.75;7387891;19;20010;-82
2023/06/09 03:07:54;;;;;;;0.70;0.70;;;;;;;30.30;29.92;99932.00;7392235;19;20688;-82
2023/06/09 03:10:21;;;;;;;1.63;0.57;;;;;;;30.43;29.81;99928.66;7395041;19;20021;-83
2023/06/09 03:12:49;;;;;;;1.15;0.70;;;;;;;30.43;29.87;99928.66;7398091;19;20006;-82
2023/06/09 03:15:16;;;;;;;0.47;0.32;;;;;;;30.49;29.70;99923.31;7397842;19;20007;-82
2023/06/09 03:17:44;;;;;;;0.40;0.40;;;;;;;30.41;29.47;99925.59;7395476;19;20471;-82
2023/06/09 03:20:11;;;;;;;0.50;0.38;;;;;;;30.37;29.90;99925.31;7393757;19;20018;-83
2023/06/09 03:22:37;;;;;;;0.50;0.47;;;;;;;30.33;29.75;99920.06;7395146;19;20014;-82
2023/06/09 03:25:04;;;;;;;0.45;0.45;;;;;;;30.36;29.52;99915.97;7394490;19;20054;-82
2023/06/09 03:27:30;;;;;;;0.55;0.35;;;;;;;30.36;29.72;99923.84;7394958;19;20015;-82
2023/06/09 03:29:56;;;;;;;1.85;0.95;;;;;;;30.32;29.76;99917.81;7400689;19;20026;-82
2023/06/09 03:32:22;;;;;;;4.53;1.08;;;;;;;30.32;29.71;99923.56;7398556;19;20010;-82
2023/06/09 03:34:50;;;;;;;0.50;0.50;;;;;;;30.15;29.76;99921.63;7396414;19;20021;-84
2023/06/09 03:37:16;;;;;;;0.70;0.45;;;;;;;30.09;29.83;99921.19;7395948;19;20031;-83
2023/06/09 03:39:42;;;;;;;0.75;0.75;;;;;;;30.02;29.79;99927.16;7397006;19;20025;-83
2023/06/09 03:42:10;;;;;;;0.70;0.60;;;;;;;30.13;30.00;99923.59;7395862;19;20486;-83
2023/06/09 03:44:37;;;;;;;2.22;0.93;;;;;;;30.23;29.75;99927.19;7396475;19;20081;-83
2023/06/09 03:47:04;;;;;;;0.68;0.52;;;;;;;30.02;29.80;99924.28;7396809;19;20022;-83
2023/06/09 03:49:30;;;;;;;0.47;0.47;;;;;;;29.95;30.23;99928.84;7397031;19;20138;-81
2023/06/09 03:51:56;;;;;;;3.30;1.33;;;;;;;29.93;30.04;99929.41;7396922;19;20473;-82
2023/06/09 03:54:23;;;;;;;1.90;0.70;;;;;;;30.01;30.00;99925.63;7395701;19;20010;-83
2023/06/09 03:56:49;;;;;;;0.40;0.40;;;;;;;30.04;30.02;99916.53;7394674;19;20469;-83
2023/06/09 03:59:16;;;;;;;2.35;1.17;;;;;;;30.01;30.09;99925.63;7396667;19;20330;-83
2023/06/09 04:01:43;;;;;;;1.33;0.73;;;;;;;30.05;29.68;99923.03;7394052;19;20688;-82
2023/06/09 04:04:12;;;;;;;1.13;0.90;;;;;;;29.83;30.26;99920.09;7400164;19;20014;-83
2023/06/09 04:06:38;;;;;;;0.75;0.40;;;;;;;29.74;30.32;99920.88;7396007;19;20018;-83
2023/06/09 04:09:05;;;;;;;0.68;0.68;;;;;;;29.68;30.43;99914.66;7395543;19;20010;-83
2023/06/09 04:11:32;;;;;;;1.10;0.75;;;;;;;29.64;30.75;99914.38;7398498;19;20019;-83
2023/06/09 04:13:59;;;;;;;0.35;0.35;;;;;;;29.67;30.81;99918.16;7395420;19;20011;-82
2023/06/09 04:16:25;;;;;;;6.03;1.58;;;;;;;29.51;30.70;99914.84;7394123;19;20038;-83
2023/06/09 04:18:51;;;;;;;2.28;0.65;;;;;;;29.59;30.88;99924.06;7394385;19;20022;-82
2023/06/09 04:21:18;;;;;;;0.50;0.50;;;;;;;29.20;31.04;99922.59;7394057;19;20007;-82
2023/06/09 04:23:45;;;;;;;1.20;1.10;;;;;;;29.24;31.23;99908.53;7396266;19;20014;-83
2023/06/09 04:26:13;;;;;;;2.80;0.95;;;;;;;29.41;30.90;99919.84;7396901;19;20042;-83
2023/06/09 04:28:41;;;;;;;0.50;0.50;;;;;;;29.28;30.47;99923.22;7394360;19;20342;-82
2023/06/09 04:31:08;;;;;;;2.05;1.95;;;;;;;29.30;30.93;99922.59;7394699;19;20033;-83
2023/06/09 04:33:36;;;;;;;0.52;0.52;;;;;;;29.25;30.99;99921.53;7397820;19;20015;-82
2023/06/09 04:36:03;;;;;;;3.63;0.88;;;;;;;29.12;31.54;99934.19;7395166;19;20007;-83
2023/06/09 04:38:33;;;;;;;1.08;0.98;;;;;;;29.06;31.22;99924.38;7393380;19;20022;-83
2023/06/09 04:41:02;;;;;;;3.42;1.38;;;;;;;29.40;30.89;99932.69;7392348;19;20465;-82
2023/06/09 04:43:32;;;;;;;3.40;0.60;;;;;;;29.69;31.16;99939.13;7392539;19;20018;-82
2023/06/09 04:46:00;;;;;;;2.75;1.10;;;;;;;29.81;30.60;99937.19;7391730;19;20022;-83
2023/06/09 04:48:29;;;;;;;2.05;1.05;;;;;;;29.91;30.77;99943.63;7392991;19;20369;-83
2023/06/09 04:51:00;;;;;;;5.37;0.83;;;;;;;30.18;30.46;99942.63;7393834;19;20928;-83
2023/06/09 04:53:29;;;;;;;2.97;1.15;;;;;;;30.36;29.89;99946.81;7393455;19;20823;-83
2023/06/09 04:55:56;;;;;;;0.82;0.45;;;;;;;30.18;30.48;99942.63;7394605;19;20419;-83
2023/06/09 04:58:28;;;;;;;;;;;;;;;30.55;30.09;99940.97;7392354;19;20003;-83
2023/06/09 05:00:57;;;;;;;8.40;1.60;;;;;;;30.16;30.33;99945.38;7389978;19;19922;-83
2023/06/09 05:03:23;;;;;;;1.98;1.02;;;;;;;30.15;30.22;99946.75;7392894;19;20519;-83
2023/06/09 05:05:50;;;;;;;2.15;1.00;;;;;;;30.20;30.55;99945.66;7390361;19;20018;-83
2023/06/09 05:08:17;;;;;;;1.42;1.00;;;;;;;30.22;30.28;99943.69;7390870;19;20030;-83
2023/06/09 05:10:44;;;;;;;1.30;0.65;;;;;;;30.22;30.21;99942.91;7396063;19;20442;-83
2023/06/09 05:13:11;;;;;;;1.48;0.90;;;;;;;30.15;30.48;99943.88;7393680;19;20369;-83
2023/06/09 05:15:37;;;;;;;2.70;1.00;;;;;;;30.18;30.74;99942.63;7393415;19;20516;-83
2023/06/09 05:18:04;;;;;;;3.35;1.67;;;;;;;30.10;30.58;99930.59;7391619;19;20019;-83
2023/06/09 05:20:30;;;;;;;1.05;0.70;;;;;;;30.19;30.97;99932.66;7391091;19;20023;-83
2023/06/09 05:22:56;;;;;;;1.38;0.80;;;;;;;30.26;30.68;99928.84;7392504;19;20018;-83
2023/06/09 05:25:23;;;;;;;2.50;0.95;;;;;;;30.10;30.85;99930.59;7390267;19;20480;-83
2023/06/09 05:27:49;;;;;;;1.08;0.47;;;;;;;30.47;30.26;99935.41;7389740;19;20293;-83
2023/06/09 05:30:18;;;;;;;1.02;0.85;;;;;;;30.69;30.61;99939.06;7390547;19;20019;-83
2023/06/09 05:32:45;;;;;;;1.25;1.13;;;;;;;30.86;30.07;99941.72;7393143;19;20098;-83
2023/06/09 05:35:11;;;;;;;3.28;0.90;;;;;;;30.86;30.23;99935.19;7393400;19;20023;-83
2023/06/09 05:37:51;;;;;;;0.98;0.88;;;;;;;30.95;29.95;99923.63;7393312;19;20011;-84
2023/06/09 05:40:20;;;;;;;1.42;0.95;;;;;;;31.10;30.12;99931.81;7389421;19;20468;-83
2023/06/09 05:42:47;;;;;;;1.02;0.93;;;;;;;31.10;30.01;99937.56;7389588;19;20014;-83
2023/06/09 05:45:13;;;;;;;1.48;1.27;;;;;;;31.16;29.92;99935.13;7392288;19;20384;-83
2023/06/09 05:47:39;;;;;;;1.55;0.85;;;;;;;31.24;30.03;99938.53;7392209;19;20089;-84
2023/06/09 05:50:06;;;;;;;1.00;0.57;;;;;;;31.00;30.11;99939.78;7395951;19;20365;-84
2023/06/09 05:52:32;;;;;;;3.38;0.95;;;;;;;31.32;29.95;99936.19;7393346;19;20082;-84
2023/06/09 05:55:00;;;;;;;5.63;0.80;;;;;;;31.33;29.96;99943.44;7394348;19;20023;-84
2023/06/09 05:57:29;;;;;;;2.63;0.98;;;;;;;31.47;29.80;99945.78;7391597;19;20014;-84
2023/06/09 05:59:58;;;;;;;3.70;1.52;;;;;;;31.64;30.01;99942.59;7394217;19;20369;-85
2023/06/09 06:02:24;;;;;;;8.00;1.58;;;;;;;31.64;29.50;99931.06;7391724;19;20018;-84
2023/06/09 06:04:51;;;;;;;3.35;1.50;;;;;;;31.13;29.85;99936.34;7390900;19;20020;-84
2023/06/09 06:07:19;;;;;;;2.70;1.25;;;;;;;31.79;29.70;99936.34;7390602;19;20413;-81
2023/06/09 06:09:45;;;;;;;6.20;1.65;;;;;;;31.76;29.63;99938.34;7392981;19;20018;-83
2023/06/09 06:12:11;;;;;;;1.45;0.88;;;;;;;31.56;29.78;99942.78;7395333;19;20427;-83
2023/06/09 06:14:37;;;;;;;5.40;1.40;;;;;;;31.66;29.37;99942.72;7392150;19;20019;-83
2023/06/09 06:17:04;;;;;;;1.13;0.98;;;;;;;31.80;29.28;99946.50;7391594;19;20082;-82
2023/06/09 06:19:30;;;;;;;4.28;2.42;;;;;;;32.06;29.23;99945.31;7392579;19;20357;-82
2023/06/09 06:21:56;;;;;;;3.65;1.55;;;;;;;32.17;28.99;99942.44;7390885;19;20013;-82
2023/06/09 06:24:22;;;;;;;7.57;1.88;;;;;;;31.99;29.33;99957.81;7391654;19;20014;-83
2023/06/09 06:26:48;;;;;;;6.90;2.30;;;;;;;31.93;29.30;99945.88;7391347;19;20408;-83
2023/06/09 06:29:14;;;;;;;2.35;1.45;;;;;;;31.82;29.59;99943.72;7391917;19;20089;-83
2023/06/09 06:31:40;;;;;;;5.32;2.35;;;;;;;31.84;29.18;99943.84;7392079;19;20464;-82
2023/06/09 06:34:06;;;;;;;3.25;1.35;;;;;;;31.72;29.10;99958.25;7394094;19;20530;-82
2023/06/09 06:36:32;;;;;;;3.95;1.73;;;;;;;32.04;29.30;99954.59;7388098;19;20019;-83
2023/06/09 06:38:58;;;;;;;4.60;1.65;;;;;;;31.97;29.02;99952.69;7390770;19;20011;-82
2023/06/09 06:41:25;;;;;;;1.63;1.38;;;;;;;32.10;29.16;99951.31;7391794;19;20080;-82
2023/06/09 06:43:52;;;;;;;2.03;1.65;;;;;;;32.06;29.36;99951.84;7390747;19;20014;-82
2023/06/09 06:46:18;;;;;;;1.85;0.90;;;;;;;32.32;29.13;99941.19;7391689;19;20468;-83
2023/06/09 06:48:44;;;;;;;9.40;1.65;;;;;;;32.44;28.99;99941.94;7392114;19;20023;-82
2023/06/09 06:51:10;;;;;;;4.35;2.17;;;;;;;32.00;29.59;99942.06;7390961;19;20367;-82
2023/06/09 06:53:37;;;;;;;2.65;1.50;;;;;;;29.69;32.42;99947.75;7389507;19;20031;-82
2023/06/09 06:56:04;;;;;;;4.03;1.70;;;;;;;20.64;45.07;99977.34;7389419;19;20078;-82
2023/06/09 06:58:30;;;;;;;1.65;1.55;;;;;;;28.75;38.01;99963.59;7388605;19;20010;-82
2023/06/09 07:00:56;;;;;;;4.45;2.05;;;;;;;30.72;33.98;99960.84;7388772;19;20413;-86
2023/06/09 07:03:26;;;;;;;2.05;1.45;;;;;;;31.57;32.50;99957.94;7390109;19;20019;-82
2023/06/09 07:05:54;;;;;;;5.68;2.35;;;;;;;31.96;31.73;99956.19;7389582;19;20043;-82
2023/06/09 07:08:20;;;;;;;7.72;3.22;;;;;;;31.81;31.52;99956.66;7388015;19;20074;-82
2023/06/09 07:10:46;;;;;;;4.60;2.28;;;;;;;32.70;30.57;99949.31;7390281;19;20027;-83
2023/06/09 07:13:12;;;;;;;6.43;2.15;;;;;;;32.62;30.69;99948.84;7390746;19;20023;-82
2023/06/09 07:15:38;;;;;;;4.13;2.17;;;;;;;32.87;29.73;99937.41;7391209;19;20010;-83
2023/06/09 07:18:06;;;;;;;2.17;1.90;;;;;;;32.21;30.43;99941.94;7388416;19;20015;-83
2023/06/09 07:20:32;;;;;;;5.22;3.08;;;;;;;32.38;30.40;99943.72;7389622;19;20014;-83
2023/06/09 07:22:59;;;;;;;4.97;2.13;;;;;;;32.22;30.26;99943.44;7387654;19;20018;-82
2023/06/09 07:25:25;;;;;;;3.50;1.75;;;;;;;30.20;30.81;99951.41;7388499;19;20038;-82
2023/06/09 07:27:52;;;;;;;2.45;1.63;;;;;;;28.23;38.13;99948.78;7386787;19;20018;-82
2023/06/09 07:30:18;;;;;;;4.43;2.20;;;;;;;32.92;31.02;99933.34;7392666;19;20027;-81
2023/06/09 07:32:44;;;;;;;12.80;3.03;;;;;;;33.68;30.25;99930.56;7392628;19;20070;-82
2023/06/09 07:35:13;;;;;;;2.33;1.13;;;;;;;33.86;29.62;99945.28;7388995;19;20037;-82
2023/06/09 07:37:42;;;;;;;8.27;2.15;;;;;;;33.87;29.45;99941.78;7387405;19;20026;-82
2023/06/09 07:40:09;;;;;;;2.60;1.55;;;;;;;34.01;28.87;99944.72;7388938;19;20037;-82
2023/06/09 07:42:36;;;;;;;4.57;2.05;;;;;;;34.18;29.25;99942.06;7386900;19;20026;-82
2023/06/09 07:45:02;;;;;;;4.68;1.60;;;;;;;34.51;29.14;99938.03;7386481;19;20019;-82
2023/06/09 07:47:28;;;;;;;3.17;1.92;;;;;;;34.51;29.00;99943.81;7387940;19;20017;-83
2023/06/09 07:49:54;;;;;;;6.13;1.70;;;;;;;34.66;28.46;99940.28;7393625;19;20107;-81
2023/06/09 07:52:20;;;;;;;4.70;2.08;;;;;;;34.51;28.01;99935.16;7388869;19;20485;-83
2023/06/09 07:54:47;;;;;;;3.33;1.45;;;;;;;34.65;28.01;99941.69;7396764;19;20050;-83
2023/06/09 07:57:13;;;;;;;5.32;2.58;;;;;;;34.56;28.41;99942.66;7396213;19;20014;-83
2023/06/09 07:59:40;;;;;;;2.97;1.60;;;;;;;34.68;27.89;99940.41;7394784;19;20015;-82
2023/06/09 08:02:06;;;;;;;2.80;1.60;;;;;;;34.81;27.56;99942.53;7395055;19;20638;-83
2023/06/09 08:04:32;;;;;;;6.18;2.03;;;;;;;34.79;27.99;99945.31;7397061;19;20031;-84
2023/06/09 08:07:01;;;;;;;6.95;1.63;;;;;;;34.72;27.75;99947.13;7397168;19;20022;-83
2023/06/09 08:09:28;;;;;;;3.88;1.58;;;;;;;34.86;27.58;99950.03;7395618;19;20023;-83
2023/06/09 08:11:54;;;;;;;4.28;1.90;;;;;;;34.74;27.91;99944.34;7399379;19;20018;-83
2023/06/09 08:14:22;;;;;;;10.43;2.08;;;;;;;34.90;27.76;99948.09;7395248;19;20031;-84
2023/06/09 08:16:49;;;;;;;3.63;1.52;;;;;;;35.03;27.64;99947.34;7396483;19;20070;-83
2023/06/09 08:19:15;;;;;;;2.58;1.48;;;;;;;35.07;27.69;99958.38;7396094;19;20015;-83
2023/06/09 08:21:43;;;;;;;3.85;1.73;;;;;;;35.20;27.52;99953.94;7395887;19;20358;-82
2023/06/09 08:24:10;;;;;;;2.78;1.00;;;;;;;35.40;27.16;99949.16;7394642;19;20014;-82
2023/06/09 08:26:37;;;;;;;4.32;1.27;;;;;;;35.58;27.36;99950.09;7396653;19;20044;-82
2023/06/09 08:29:04;;;;;;;10.48;1.85;;;;;;;35.78;26.98;99943.13;7394174;19;20435;-82
2023/06/09 08:31:31;;;;;;;7.68;1.35;;;;;;;35.98;26.96;99942.59;7395458;19;20039;-82
2023/06/09 08:33:57;;;;;;;1.48;0.85;;;;;;;36.18;26.73;99943.56;7401094;19;20338;-82
2023/06/09 08:36:23;;;;;;;3.25;1.70;;;;;;;36.11;26.79;99938.88;7396245;19;20018;-82
2023/06/09 08:38:50;;;;;;;0.90;0.85;;;;;;;36.13;26.77;99924.47;7392739;19;20409;-82
2023/06/09 08:41:18;;;;;;;2.50;1.23;;;;;;;36.72;26.48;99934.44;7392130;19;20086;-82
2023/06/09 08:43:45;;;;;;;2.83;1.13;;;;;;;36.89;25.88;99927.97;7390900;19;20014;-82
2023/06/09 08:46:11;;;;;;;1.38;1.17;;;;;;;36.89;25.86;99927.19;7391776;19;20022;-82
2023/06/09 08:48:47;;;;;;;2.22;1.33;;;;;;;36.76;25.88;99931.72;7394228;19;20025;-82
2023/06/09 08:51:13;;;;;;;3.60;1.13;;;;;;;36.69;25.92;99927.03;7394254;19;20034;-82
2023/06/09 08:53:39;;;;;;;2.65;1.30;;;;;;;36.79;25.81;99929.66;7394034;19;20014;-81
2023/06/09 08:56:07;;;;;;;3.05;1.45;;;;;;;36.70;26.01;99931.44;7395302;19;20014;-82
2023/06/09 08:58:33;;;;;;;8.18;1.63;;;;;;;36.88;25.63;99932.25;7392733;19;20030;-81
2023/06/09 09:01:01;;;;;;;3.25;1.17;;;;;;;36.97;25.90;99928.28;7392979;19;20031;-82
2023/06/09 09:03:27;;;;;;;8.32;1.58;;;;;;;37.02;25.38;99924.16;7393802;19;21093;-81
2023/06/09 09:05:53;;;;;;;2.33;1.15;;;;;;;37.34;25.24;99924.03;7389361;19;20029;-81
2023/06/09 09:08:20;;;;;;;3.17;1.38;;;;;;;37.33;25.48;99916.72;7392643;19;20038;-81
2023/06/09 09:10:46;;;;;;;1.38;0.82;;;;;;;37.66;25.13;99908.69;7394938;19;20030;-81
2023/06/09 09:13:13;;;;;;;7.38;0.38;;;;;;;37.80;25.30;99923.03;7394092;19;20021;-81
2023/06/09 09:15:49;;;;;;;11.13;1.05;;;;;;;37.89;25.65;99910.31;7392626;19;20508;-81
2023/06/09 09:18:21;;;;;;;1.40;0.90;;;;;;;38.32;25.03;99912.69;7392703;19;20045;-81
2023/06/09 09:20:48;;;;;;;3.47;0.90;;;;;;;38.48;25.37;99908.22;7392878;19;20018;-82
2023/06/09 09:23:14;;;;;;;12.32;1.15;;;;;;;38.41;24.85;99897.00;7392129;19;20010;-82
2023/06/09 09:25:41;;;;;;;8.32;1.00;;;;;;;38.33;24.87;99902.53;7390988;19;20015;-81
2023/06/09 09:28:12;;;;;;;3.67;0.63;;;;;;;38.47;24.44;99911.78;7391150;19;20086;-82
2023/06/09 09:30:55;;;;;;;2.78;0.63;;;;;;;38.53;24.55;99915.66;7393886;19;20083;-82
2023/06/09 09:33:26;;;;;;;4.72;1.30;;;;;;;38.61;24.37;99913.06;7397332;19;20026;-82
2023/06/09 09:35:55;;;;;;;4.45;0.98;;;;;;;38.70;24.32;99904.63;7393865;19;20359;-82
2023/06/09 09:38:23;;;;;;;6.72;0.82;;;;;;;38.55;24.58;99907.00;7391035;19;20540;-82
2023/06/09 09:40:51;;;;;;;3.67;0.90;;;;;;;38.67;25.01;99918.34;7391973;19;20018;-82
2023/06/09 09:43:18;;;;;;;8.48;1.20;;;;;;;39.03;24.27;99901.41;7390077;19;20014;-82
2023/06/09 09:45:47;;;;;;;1.08;0.57;;;;;;;38.98;24.29;99911.44;7390563;19;20405;-82
2023/06/09 09:48:15;;;;;;;1.83;0.88;;;;;;;38.81;24.48;99906.47;7391684;19;20030;-82
2023/06/09 09:50:43;;;;;;;3.20;0.80;;;;;;;38.80;24.50;99907.88;7391429;19;20024;-81
2023/06/09 09:53:10;;;;;;;5.78;0.68;;;;;;;38.86;24.69;99905.16;7391350;19;20029;-82
2023/06/09 09:55:46;;;;;;;4.20;0.98;;;;;;;38.85;24.61;99900.78;7393108;19;20038;-82
2023/06/09 09:58:17;;;;;;;3.65;0.80;;;;;;;39.14;24.18;99903.25;7391638;19;20015;-82
2023/06/09 10:00:44;;;;;;;3.30;1.35;;;;;;;39.09;24.27;99904.53;7389745;19;20018;-82
2023/06/09 10:03:15;;;;;;;2.28;0.70;;;;;;;39.12;24.42;99903.94;7390697;19;20129;-82
2023/06/09 10:05:46;;;;;;;25.52;1.98;;;;;;;39.22;24.30;99901.34;7390516;19;20114;-82
2023/06/09 10:08:26;;;;;;;3.50;0.82;;;;;;;39.08;23.58;99900.09;7390624;19;20032;-82
2023/06/09 10:11:00;;;;;;;2.75;0.63;;;;;;;38.94;23.85;99893.81;7395642;19;20018;-82
2023/06/09 10:13:27;;;;;;;1.70;0.68;;;;;;;37.95;24.34;99904.72;7393878;19;20014;-82
2023/06/09 10:15:54;;;;;;;5.05;1.30;;;;;;;38.66;23.95;99893.56;7391911;19;20020;-82
2023/06/09 10:18:22;;;;;;;3.47;1.33;;;;;;;38.78;24.21;99893.25;7390964;19;20607;-82
2023/06/09 10:20:50;;;;;;;8.55;1.20;;;;;;;38.91;24.18;99883.50;7395056;19;20014;-82
2023/06/09 10:23:17;;;;;;;2.45;0.80;;;;;;;39.15;23.86;99887.28;7390280;19;20017;-82
2023/06/09 10:25:47;;;;;;;6.25;1.20;;;;;;;39.22;23.74;99880.22;7389220;19;20022;-82
2023/06/09 10:28:15;;;;;;;;;;;;;;;39.36;24.03;99877.75;7392135;19;20505;-83
2023/06/09 10:30:41;;;;;;;1.65;1.00;;;;;;;39.34;24.25;99883.53;7391393;19;19967;-82
2023/06/09 10:33:16;;;;;;;1.50;0.93;;;;;;;39.59;23.99;99874.16;7391061;19;20026;-82
2023/06/09 10:35:46;;;;;;;2.05;1.13;;;;;;;39.23;24.71;99873.72;7389872;19;20392;-81
2023/06/09 10:38:30;;;;;;;6.32;1.27;;;;;;;39.98;24.21;99879.72;7387716;19;20365;-83
2023/06/09 10:41:11;;;;;;;3.75;1.25;;;;;;;40.21;23.17;99866.53;7392408;19;20022;-79
2023/06/09 10:44:19;;;;;;;4.22;0.95;;;;;;;40.06;23.02;99862.47;7390685;19;20026;-79
2023/06/09 10:46:47;;;;;;;15.32;1.73;;;;;;;40.10;23.17;99858.94;7388960;19;20014;-81
2023/06/09 10:49:26;;;;;;;5.57;1.83;;;;;;;40.17;23.42;99859.84;7388698;19;20066;-81
2023/06/09 10:51:55;;;;;;;1.05;0.30;;;;;;;40.19;22.92;99856.97;7393099;19;20545;-83
2023/06/09 10:54:27;;;;;;;3.72;1.27;;;;;;;40.04;23.06;99847.84;7390515;19;20018;-80
2023/06/09 10:57:00;;;;;;;3.45;0.75;;;;;;;40.11;22.91;99843.63;7389377;19;20019;-82
2023/06/09 10:59:26;;;;;;;2.25;0.95;;;;;;;40.15;23.41;99848.88;7390637;19;20011;-83
2023/06/09 11:02:11;;;;;;;5.03;1.60;;;;;;;40.01;23.46;99843.38;7391823;19;20030;-83
2023/06/09 11:07:20;;;;;;;2.80;1.00;;;;;;;39.84;23.76;99855.97;7390878;19;20047;-82
2023/06/09 11:09:47;;;;;;;1.63;0.60;;;;;;;40.05;23.28;99849.31;7389336;19;20053;-81
2023/06/09 11:12:25;;;;;;;3.47;1.42;;;;;;;40.07;23.38;99840.63;7393661;19;20410;-83
2023/06/09 11:14:56;;;;;;;6.40;1.45;;;;;;;39.76;23.57;99841.16;7393199;19;20336;-83
2023/06/09 11:17:36;;;;;;;5.70;1.65;;;;;;;39.90;23.07;99850.31;7387339;19;20018;-82
2023/06/09 11:20:06;;;;;;;4.30;0.75;;;;;;;37.61;25.13;99836.50;7387615;19;20579;-83
2023/06/09 11:22:41;;;;;;;3.40;0.85;;;;;;;39.35;24.10;99850.03;7387729;19;20089;-82
2023/06/09 11:25:28;;;;;;;10.50;1.60;;;;;;;40.30;23.79;99850.00;7386842;19;20018;-81
2023/06/09 11:27:54;;;;;;;8.57;1.67;;;;;;;40.78;23.29;99857.19;7389747;19;20027;-82
2023/06/09 11:30:23;;;;;;;4.70;1.13;;;;;;;40.44;23.33;99844.56;7397332;19;20022;-83
2023/06/09 11:32:53;;;;;;;3.47;0.85;;;;;;;40.33;23.78;99843.53;7397918;19;20031;-81
2023/06/09 11:35:22;;;;;;;8.45;1.20;;;;;;;40.38;23.37;99838.53;7395724;19;20052;-81
2023/06/09 11:37:53;;;;;;;4.25;1.27;;;;;;;40.89;22.97;99844.34;7395457;19;20022;-82
2023/06/09 11:40:20;;;;;;;3.05;1.10;;;;;;;41.31;23.03;99836.63;7392611;19;20026;-82